createdAt,value
2019-04-28T00:02:40.735Z,18.93
2019-04-28T00:05:09.390Z,17.70
2019-04-28T00:07:38.383Z,18.77
2019-04-28T00:13:22.450Z,16.90
2019-04-28T00:19:08.641Z,16.20
2019-04-28T00:24:53.827Z,16.33
2019-04-28T00:30:38.124Z,18.40
2019-04-28T00:36:23.011Z,18.87
2019-04-28T00:42:07.285Z,18.13
2019-04-28T00:47:51.094Z,17.20
2019-04-28T00:50:21.657Z,17.00
2019-04-28T00:56:06.341Z,19.47
2019-04-28T01:01:52.355Z,14.77
2019-04-28T01:07:37.854Z,18.57
2019-04-28T01:10:06.402Z,18.40
2019-04-28T01:12:36.083Z,15.23
2019-04-28T01:15:06.372Z,16.00
2019-04-28T01:17:39.653Z,17.10
2019-04-28T01:20:09.815Z,18.57
2019-04-28T01:25:54.283Z,18.50
2019-04-28T01:31:39.717Z,17.97
2019-04-28T01:37:35.409Z,17.63
2019-04-28T01:43:19.961Z,19.13
2019-04-28T01:49:04.284Z,14.53
2019-04-28T01:54:50.168Z,20.23
2019-04-28T01:57:21.334Z,18.37
2019-04-28T02:02:53.483Z,17.00
2019-04-28T02:08:39.852Z,17.70
2019-04-28T02:11:10.071Z,18.00
2019-04-28T02:16:54.781Z,16.50
2019-04-28T02:22:41.681Z,19.47
2019-04-28T02:28:26.658Z,13.70
2019-04-28T02:30:54.894Z,15.43
2019-04-28T02:36:40.712Z,15.13
2019-04-28T02:39:10.678Z,13.77
2019-04-28T02:41:41.137Z,14.90
2019-04-28T02:47:26.203Z,16.23
2019-04-28T02:53:12.537Z,13.60
2019-04-28T02:58:57.509Z,14.33
2019-04-28T03:04:42.381Z,13.00
2019-04-28T03:10:27.691Z,11.93
2019-04-28T03:16:12.271Z,11.80
2019-04-28T03:21:56.889Z,13.03
2019-04-28T03:27:43.320Z,12.00
2019-04-28T03:33:34.426Z,13.50
2019-04-28T03:36:03.697Z,14.33
2019-04-28T03:38:31.028Z,11.87
2019-04-28T03:44:15.281Z,12.27
2019-04-28T03:50:00.080Z,14.77
2019-04-28T03:55:45.211Z,14.10
2019-04-28T03:58:13.452Z,13.03
2019-04-28T04:03:58.152Z,12.67
2019-04-28T04:09:44.566Z,12.67
2019-04-28T04:15:30.911Z,11.27
2019-04-28T04:21:15.360Z,11.27
2019-04-28T04:27:00.928Z,12.20
2019-04-28T04:32:45.612Z,14.47
2019-04-28T04:38:31.240Z,14.27
2019-04-28T04:44:27.570Z,13.00
2019-04-28T04:46:55.852Z,13.43
2019-04-28T04:52:40.497Z,15.30
2019-04-28T04:55:11.144Z,15.20
2019-04-28T04:57:40.833Z,12.87
2019-04-28T05:00:10.844Z,14.77
2019-04-28T05:05:54.243Z,16.23
2019-04-28T05:08:22.583Z,15.30
2019-04-28T05:10:50.773Z,19.23
2019-04-28T05:16:35.101Z,14.23
2019-04-28T05:19:03.522Z,11.80
2019-04-28T05:24:51.142Z,12.60
2019-04-28T05:27:22.161Z,10.60
2019-04-28T05:33:05.261Z,10.97
2019-04-28T05:38:50.285Z,11.33
2019-04-28T05:44:37.462Z,11.57
2019-04-28T05:50:23.603Z,15.00
2019-04-28T05:52:53.587Z,15.37
2019-04-28T05:55:23.623Z,31.43
2019-04-28T05:57:53.559Z,92.10
2019-04-28T06:03:37.834Z,127.73
2019-04-28T06:09:23.734Z,123.77
2019-04-28T06:11:55.689Z,128.97
2019-04-28T06:14:24.852Z,93.07
2019-04-28T06:20:11.418Z,113.00
2019-04-28T06:25:55.611Z,12.13
2019-04-28T06:28:23.996Z,12.03
2019-04-28T06:34:07.926Z,15.90
2019-04-28T06:39:52.229Z,20.07
2019-04-28T06:42:20.607Z,12.80
2019-04-28T06:44:50.047Z,13.63
2019-04-28T06:47:19.443Z,12.63
2019-04-28T06:49:47.701Z,11.77
2019-04-28T06:52:15.995Z,12.97
2019-04-28T06:54:44.445Z,14.23
2019-04-28T06:57:13.798Z,12.83
2019-04-28T06:59:42.121Z,14.60
2019-04-28T07:02:10.361Z,12.23
2019-04-28T07:04:38.678Z,133.87
2019-04-28T07:07:06.946Z,89.13
2019-04-28T07:09:35.372Z,169.23
2019-04-28T07:12:03.787Z,140.00
2019-04-28T07:14:32.073Z,57.97
2019-04-28T07:17:00.441Z,111.40
2019-04-28T07:19:29.055Z,115.57
2019-04-28T07:21:58.958Z,80.33
2019-04-28T07:24:27.091Z,57.70
2019-04-28T07:30:00.669Z,22.80
2019-04-28T07:35:45.803Z,107.97
2019-04-28T07:38:14.169Z,155.73
2019-04-28T07:40:42.444Z,9.73
2019-04-28T07:46:26.704Z,8.80
2019-04-28T07:48:55.371Z,8.53
2019-04-28T07:54:40.269Z,11.17
2019-04-28T07:57:08.541Z,9.60
2019-04-28T08:02:53.329Z,8.30
2019-04-28T08:08:26.003Z,9.40
2019-04-28T08:10:54.407Z,10.93
2019-04-28T08:13:23.864Z,9.97
2019-04-28T08:19:07.589Z,8.20
2019-04-28T08:21:35.941Z,9.20
2019-04-28T08:24:04.436Z,7.27
2019-04-28T08:29:37.262Z,7.70
2019-04-28T08:35:21.095Z,7.57
2019-04-28T08:37:49.484Z,8.53
2019-04-28T08:43:33.782Z,7.17
2019-04-28T08:46:01.941Z,6.07
2019-04-28T08:48:30.425Z,8.03
2019-04-28T08:54:15.040Z,6.67
2019-04-28T08:59:59.852Z,6.63
2019-04-28T09:02:28.255Z,9.07
2019-04-28T09:08:00.814Z,7.87
2019-04-28T09:13:45.639Z,9.23
2019-04-28T09:19:30.326Z,6.27
2019-04-28T09:25:15.094Z,7.13
2019-04-28T09:31:00.873Z,8.83
2019-04-28T09:33:29.174Z,6.53
2019-04-28T09:35:57.589Z,6.80
2019-04-28T09:41:42.736Z,9.43
2019-04-28T09:47:16.019Z,11.10
2019-04-28T09:49:44.362Z,10.57
2019-04-28T09:55:28.162Z,8.00
2019-04-28T10:01:12.603Z,62.30
2019-04-28T10:06:45.395Z,13.80
2019-04-28T10:09:14.052Z,29.20
2019-04-28T10:14:58.994Z,12.97
2019-04-28T10:17:27.469Z,9.87
2019-04-28T10:19:55.842Z,9.97
2019-04-28T10:22:25.080Z,20.63
2019-04-28T10:24:53.474Z,12.27
2019-04-28T10:27:22.442Z,12.13
2019-04-28T10:33:06.973Z,7.70
2019-04-28T10:35:35.269Z,8.10
2019-04-28T10:41:10.331Z,8.73
2019-04-28T10:46:54.755Z,7.63
2019-04-28T10:52:52.281Z,10.00
2019-04-28T10:58:37.024Z,9.27
2019-04-28T11:01:06.309Z,9.23
2019-04-28T11:03:34.822Z,8.67
2019-04-28T11:06:03.151Z,8.40
2019-04-28T11:11:36.471Z,118.97
2019-04-28T11:17:22.013Z,81.97
2019-04-28T11:19:50.461Z,10.17
2019-04-28T11:25:34.786Z,9.33
2019-04-28T11:28:03.208Z,9.97
2019-04-28T11:30:31.688Z,7.17
2019-04-28T11:36:17.849Z,8.37
2019-04-28T11:38:46.185Z,6.97
2019-04-28T11:44:30.772Z,7.93
2019-04-28T11:46:59.098Z,7.63
2019-04-28T11:52:31.520Z,9.07
2019-04-28T11:58:15.961Z,6.30
2019-04-28T12:04:02.174Z,4.90
2019-04-28T12:09:48.754Z,7.57
2019-04-28T12:12:18.765Z,7.47
2019-04-28T12:18:11.627Z,6.60
2019-04-28T12:23:44.546Z,8.47
2019-04-28T12:29:28.587Z,7.73
2019-04-28T12:31:57.309Z,5.43
2019-04-28T12:37:42.288Z,9.40
2019-04-28T12:43:26.634Z,7.83
2019-04-28T12:49:13.227Z,7.47
2019-04-28T12:51:41.577Z,6.53
2019-04-28T12:54:11.514Z,6.40
2019-04-28T12:56:39.928Z,6.47
2019-04-28T12:59:09.913Z,6.40
2019-04-28T13:01:39.930Z,8.00
2019-04-28T13:04:09.903Z,6.20
2019-04-28T13:09:51.634Z,7.93
2019-04-28T13:15:24.941Z,8.97
2019-04-28T13:17:53.485Z,9.77
2019-04-28T13:20:21.911Z,6.87
2019-04-28T13:26:06.102Z,8.70
2019-04-28T13:28:34.515Z,8.50
2019-04-28T13:31:03.025Z,7.23
2019-04-28T13:33:31.280Z,8.13
2019-04-28T13:35:59.681Z,6.50
2019-04-28T13:38:27.978Z,6.40
2019-04-28T13:40:56.401Z,6.07
2019-04-28T13:43:24.749Z,5.17
2019-04-28T13:45:52.992Z,6.83
2019-04-28T13:51:49.047Z,6.20
2019-04-28T13:57:33.194Z,7.30
2019-04-28T14:00:03.154Z,6.23
2019-04-28T14:02:31.281Z,5.80
2019-04-28T14:05:01.261Z,5.83
2019-04-28T14:07:29.827Z,4.83
2019-04-28T14:13:02.276Z,7.43
2019-04-28T14:18:34.938Z,5.90
2019-04-28T14:24:19.913Z,8.40
2019-04-28T14:26:56.867Z,9.90
2019-04-28T14:32:42.302Z,8.60
2019-04-28T14:35:10.994Z,6.23
2019-04-28T14:37:39.278Z,9.97
2019-04-28T14:40:07.654Z,9.40
2019-04-28T14:42:35.935Z,6.60
2019-04-28T14:45:05.653Z,9.20
2019-04-28T14:47:36.260Z,7.90
2019-04-28T14:50:12.145Z,9.07
2019-04-28T14:55:58.845Z,5.23
2019-04-28T15:01:44.801Z,8.13
2019-04-28T15:07:33.299Z,8.80
2019-04-28T15:13:08.694Z,9.23
2019-04-28T15:15:37.097Z,7.97
2019-04-28T15:21:10.173Z,8.17
2019-04-28T15:26:53.637Z,7.87
2019-04-28T15:32:50.326Z,11.27
2019-04-28T15:38:35.586Z,9.00
2019-04-28T15:44:19.699Z,8.77
2019-04-28T15:50:04.876Z,5.47
2019-04-28T15:55:50.453Z,8.67
2019-04-28T15:58:20.398Z,9.90
2019-04-28T16:00:48.762Z,8.67
2019-04-28T16:06:34.327Z,9.13
2019-04-28T16:12:19.763Z,10.50
2019-04-28T16:18:05.020Z,8.30
2019-04-28T16:20:33.322Z,10.50
2019-04-28T16:26:05.673Z,6.50
2019-04-28T16:28:33.921Z,11.73
2019-04-28T16:31:02.309Z,10.07
2019-04-28T16:33:30.694Z,12.20
2019-04-28T16:36:00.269Z,12.77
2019-04-28T16:38:28.571Z,10.63
2019-04-28T16:40:56.886Z,6.97
2019-04-28T16:43:25.534Z,12.60
2019-04-28T16:45:53.999Z,12.43
2019-04-28T16:48:22.375Z,12.50
2019-04-28T16:50:50.694Z,10.70
2019-04-28T16:53:19.161Z,9.30
2019-04-28T16:55:47.241Z,10.60
2019-04-28T16:58:17.274Z,11.23
2019-04-28T17:00:47.274Z,10.77
2019-04-28T17:03:15.886Z,11.73
2019-04-28T17:05:44.429Z,11.03
2019-04-28T17:08:12.801Z,12.33
2019-04-28T17:10:41.054Z,12.13
2019-04-28T17:13:09.608Z,12.13
2019-04-28T17:15:38.173Z,10.37
2019-04-28T17:18:06.622Z,12.10
2019-04-28T17:20:35.009Z,10.70
2019-04-28T17:23:03.341Z,12.10
2019-04-28T17:25:31.772Z,12.23
2019-04-28T17:28:00.238Z,11.90
2019-04-28T17:30:28.755Z,12.47
2019-04-28T17:32:57.226Z,9.13
2019-04-28T17:35:25.721Z,11.13
2019-04-28T17:38:05.987Z,10.47
2019-04-28T17:40:24.593Z,11.43
2019-04-28T17:42:52.933Z,12.53
2019-04-28T17:45:21.921Z,13.00
2019-04-28T17:47:51.973Z,13.03
2019-04-28T17:50:21.811Z,15.93
2019-04-28T17:52:49.974Z,14.40
2019-04-28T17:55:18.382Z,15.80
2019-04-28T17:57:46.793Z,13.80
2019-04-28T18:00:16.779Z,16.40
2019-04-28T18:02:46.691Z,16.93
2019-04-28T18:05:16.685Z,14.83
2019-04-28T18:07:45.689Z,14.50
2019-04-28T18:10:14.133Z,15.83
2019-04-28T18:12:42.498Z,12.43
2019-04-28T18:15:12.569Z,15.63
2019-04-28T18:17:42.578Z,15.30
2019-04-28T18:20:11.394Z,13.90
2019-04-28T18:22:39.921Z,13.47
2019-04-28T18:25:08.554Z,13.80
2019-04-28T18:27:37.033Z,12.73
2019-04-28T18:30:06.938Z,12.63
2019-04-28T18:32:38.113Z,15.03
2019-04-28T18:35:08.154Z,15.10
2019-04-28T18:37:38.208Z,15.70
2019-04-28T18:40:08.614Z,12.93
2019-04-28T18:42:38.895Z,15.63
2019-04-28T18:45:08.262Z,13.47
2019-04-28T18:47:36.594Z,15.30
2019-04-28T18:50:06.109Z,13.53
2019-04-28T18:52:34.553Z,15.50
2019-04-28T18:55:03.174Z,15.80
2019-04-28T18:57:31.578Z,16.10
2019-04-28T19:00:00.033Z,15.23
2019-04-28T19:02:29.922Z,16.97
2019-04-28T19:04:58.257Z,14.57
2019-04-28T19:07:28.210Z,13.57
2019-04-28T19:09:58.221Z,14.60
2019-04-28T19:12:28.149Z,14.40
2019-04-28T19:14:58.199Z,15.23
2019-04-28T19:17:28.182Z,16.90
2019-04-28T19:19:56.543Z,16.07
2019-04-28T19:22:25.082Z,15.80
2019-04-28T19:24:53.657Z,15.53
2019-04-28T19:27:22.076Z,15.23
2019-04-28T19:29:50.393Z,15.53
2019-04-28T19:32:18.849Z,15.13
2019-04-28T19:34:47.285Z,15.37
2019-04-28T19:37:15.806Z,17.13
2019-04-28T19:39:44.288Z,19.07
2019-04-28T19:42:12.634Z,18.47
2019-04-28T19:44:41.013Z,17.53
2019-04-28T19:47:09.566Z,18.30
2019-04-28T19:49:38.038Z,18.40
2019-04-28T19:52:07.670Z,17.87
2019-04-28T19:54:37.642Z,15.10
2019-04-28T19:57:07.861Z,17.17
2019-04-28T19:59:38.079Z,15.00
2019-04-28T20:02:06.496Z,16.57
2019-04-28T20:04:34.808Z,15.20
2019-04-28T20:07:03.173Z,18.70
2019-04-28T20:09:31.499Z,15.40
2019-04-28T20:11:59.990Z,17.03
2019-04-28T20:14:28.336Z,13.83
2019-04-28T20:16:56.849Z,16.00
2019-04-28T20:19:25.529Z,14.40
2019-04-28T20:21:53.973Z,14.60
2019-04-28T20:24:22.591Z,15.00
2019-04-28T20:26:51.000Z,15.27
2019-04-28T20:29:19.305Z,16.10
2019-04-28T20:31:47.643Z,17.27
2019-04-28T20:34:16.106Z,14.27
2019-04-28T20:36:46.125Z,14.93
2019-04-28T20:39:16.155Z,14.57
2019-04-28T20:41:46.161Z,14.63
2019-04-28T20:44:14.429Z,15.30
2019-04-28T20:46:42.636Z,16.50
2019-04-28T20:49:11.009Z,14.10
2019-04-28T20:51:39.434Z,15.10
2019-04-28T20:54:07.847Z,13.37
2019-04-28T20:56:36.237Z,15.27
2019-04-28T20:59:04.617Z,11.77
2019-04-28T21:01:32.997Z,15.13
2019-04-28T21:04:02.601Z,16.33
2019-04-28T21:06:31.196Z,13.60
2019-04-28T21:08:59.494Z,15.33
2019-04-28T21:11:29.519Z,16.43
2019-04-28T21:13:57.774Z,17.43
2019-04-28T21:16:26.150Z,15.63
2019-04-28T21:18:54.523Z,15.63
2019-04-28T21:21:22.883Z,16.63
2019-04-28T21:23:51.204Z,16.70
2019-04-28T21:26:19.551Z,14.90
2019-04-28T21:28:48.941Z,17.47
2019-04-28T21:31:17.354Z,15.77
2019-04-28T21:33:45.962Z,18.10
2019-04-28T21:36:14.414Z,15.43
2019-04-28T21:38:42.621Z,19.13
2019-04-28T21:41:12.578Z,17.03
2019-04-28T21:43:42.474Z,16.70
2019-04-28T21:46:12.438Z,15.50
2019-04-28T21:48:42.473Z,17.23
2019-04-28T21:51:12.106Z,17.00
2019-04-28T21:53:40.848Z,16.13
2019-04-28T21:56:09.246Z,19.37
2019-04-28T21:58:37.650Z,18.47
2019-04-28T22:01:07.221Z,20.03
2019-04-28T22:03:37.203Z,18.83
2019-04-28T22:06:05.609Z,18.47
2019-04-28T22:08:34.108Z,17.60
2019-04-28T22:11:02.497Z,15.50
2019-04-28T22:13:30.898Z,19.23
2019-04-28T22:15:59.354Z,17.00
2019-04-28T22:18:27.607Z,18.00
2019-04-28T22:20:56.109Z,16.87
2019-04-28T22:23:26.007Z,18.67
2019-04-28T22:25:54.285Z,17.33
2019-04-28T22:28:24.013Z,17.83
2019-04-28T22:30:52.382Z,17.10
2019-04-28T22:33:20.577Z,19.17
2019-04-28T22:35:50.258Z,18.60
2019-04-28T22:38:18.536Z,19.00
2019-04-28T22:40:46.992Z,16.97
2019-04-28T22:43:15.421Z,17.77
2019-04-28T22:45:43.921Z,17.63
2019-04-28T22:48:13.940Z,17.70
2019-04-28T22:50:43.302Z,19.00
2019-04-28T22:53:11.986Z,15.73
2019-04-28T22:55:41.932Z,15.77
2019-04-28T22:58:11.875Z,18.30
2019-04-28T23:00:39.988Z,18.57
2019-04-28T23:03:11.553Z,17.67
2019-04-28T23:05:41.134Z,17.77
2019-04-28T23:08:09.434Z,17.73
2019-04-28T23:10:38.954Z,19.33
2019-04-28T23:13:07.361Z,17.37
2019-04-28T23:15:36.008Z,17.73
2019-04-28T23:18:04.612Z,17.47
2019-04-28T23:20:34.561Z,16.93
2019-04-28T23:23:04.553Z,16.87
2019-04-28T23:25:32.916Z,17.33
2019-04-28T23:28:01.389Z,18.83
2019-04-28T23:30:31.216Z,17.30
2019-04-28T23:32:59.527Z,17.03
2019-04-28T23:35:27.882Z,17.23
2019-04-28T23:37:56.450Z,18.07
2019-04-28T23:40:24.743Z,19.00
2019-04-28T23:42:54.713Z,16.50
2019-04-28T23:45:23.134Z,18.43
2019-04-28T23:47:51.381Z,18.63
2019-04-28T23:50:21.361Z,18.37
2019-04-28T23:52:51.226Z,20.50
2019-04-28T23:55:20.421Z,21.40
2019-04-28T23:57:48.800Z,20.47
